Elmhurst, IL (60126)

7:17 PM CST on March 03, 2015 (GMT -0600)
Berens Park Area | Change Station
CLOSE
Current Station
Personal Weather Station
Location: Elmhurst, IL
Elevation: 692 ft
Nearby Weather Stations

Elev 692 ft 41.91 °N, 87.96 °W | Updated 56 seconds ago

Overcast
Overcast
33.5 °F
Feels Like 31 °F
N
3.3
Wind Variable Wind from West
Gusts 10.0 mph

Today
High -- | Low -- °F
--% Chance of Precip.
Yesterday
High -- | Low -- °F
Precip. -- in
6:23 AM 5:44 PM
Waxing Gibbous, 97% visible
Pressure 29.78 in
Visibility 10.0 miles
Clouds Scattered Clouds 1800 ft
Overcast 2600 ft
Windchill 31 °F
Dew Point 29 °F
Humidity 84%
Rainfall 0.07 in
Snow Depth Not available.
UV 0 out of 12
Pollen .50 out of 12
Air Quality Not available.
Flu Activity Not available.
METAR KORD 040051Z 28010KT 10SM SCT018 OVC026 01/M02 A2975 RMK AO2 SLP083 T00061022

More Conditions Fewer Conditions

Pressure 29.78 in
Visibility 10.0 miles
Clouds Scattered Clouds 1800 ft
Overcast 2600 ft
Windchill 31 °F
Dew Point 29 °F
Humidity 84%
Rainfall 0.07 in
Snow Depth Not available.
UV 0 out of 12
Pollen .50 out of 12
Air Quality Not available.
Flu Activity Not available.
METAR KORD 040051Z 28010KT 10SM SCT018 OVC026 01/M02 A2975 RMK AO2 SLP083 T00061022

More Conditions Fewer Conditions

10-Day Weather Forecast

Almanac

Astronomy

Mar. 03, 2015 Rise Set
Actual Time
Civil Twilight
Nautical Twilight
Astronomical Twilight
Moon
Length of Visible Light
Length of Day
Tomorrow will be .
, % of the Moon is Illuminated

Today's Extremes

State Highs State Lows

Community

WunderPhotos

Upload Photos

1,802,340 photos uploaded!

WunderBlogs® & News

Nearby

Air Quality

  Air Quality AQ Index Pollutant
Not available.

Snow Depth

Station Depth Elevation

Earthquake Activity

City Distance Mag. Time & Date
Minimum magnitude displayed is 2.5.

Coastal Water Temperatures

Place Temperature

Nearby Weather Stations